sensor_id;sensor_type;location;lat;lon;timestamp;P1;durP1;ratioP1;P2;durP2;ratioP2
34152;SDS011;20426;48.372;10.888;2023-02-28T00:00:07;3.50;;;2.33;;
34152;SDS011;20426;48.372;10.888;2023-02-28T00:00:40;3.63;;;2.90;;
34152;SDS011;20426;48.372;10.888;2023-02-28T00:01:11;2.55;;;1.75;;
34152;SDS011;20426;48.372;10.888;2023-02-28T00:01:43;3.33;;;2.00;;
34152;SDS011;20426;48.372;10.888;2023-02-28T00:02:14;2.53;;;1.92;;
34152;SDS011;20426;48.372;10.888;2023-02-28T00:02:47;3.50;;;1.63;;
34152;SDS011;20426;48.372;10.888;2023-02-28T00:03:18;3.95;;;2.08;;
34152;SDS011;20426;48.372;10.888;2023-02-28T00:03:49;2.78;;;2.08;;
34152;SDS011;20426;48.372;10.888;2023-02-28T00:04:20;4.57;;;1.85;;
34152;SDS011;20426;48.372;10.888;2023-02-28T00:04:50;2.38;;;1.80;;
34152;SDS011;20426;48.372;10.888;2023-02-28T00:05:23;3.50;;;1.85;;
34152;SDS011;20426;48.372;10.888;2023-02-28T00:05:55;3.75;;;2.10;;
34152;SDS011;20426;48.372;10.888;2023-02-28T00:06:26;3.47;;;2.08;;
34152;SDS011;20426;48.372;10.888;2023-02-28T00:06:57;3.80;;;2.15;;
34152;SDS011;20426;48.372;10.888;2023-02-28T00:07:27;3.28;;;2.03;;
34152;SDS011;20426;48.372;10.888;2023-02-28T00:07:59;3.25;;;2.00;;
34152;SDS011;20426;48.372;10.888;2023-02-28T00:08:30;4.15;;;2.17;;
34152;SDS011;20426;48.372;10.888;2023-02-28T00:09:01;2.40;;;1.65;;
34152;SDS011;20426;48.372;10.888;2023-02-28T00:09:32;3.20;;;2.13;;
34152;SDS011;20426;48.372;10.888;2023-02-28T00:10:06;2.28;;;1.77;;
34152;SDS011;20426;48.372;10.888;2023-02-28T00:10:39;3.35;;;1.85;;
34152;SDS011;20426;48.372;10.888;2023-02-28T00:11:11;3.35;;;2.00;;
34152;SDS011;20426;48.372;10.888;2023-02-28T00:11:43;4.18;;;2.10;;
34152;SDS011;20426;48.372;10.888;2023-02-28T00:12:13;3.22;;;1.95;;
34152;SDS011;20426;48.372;10.888;2023-02-28T00:12:44;2.88;;;2.08;;
34152;SDS011;20426;48.372;10.888;2023-02-28T00:13:15;4.30;;;2.17;;
34152;SDS011;20426;48.372;10.888;2023-02-28T00:13:47;3.75;;;1.80;;
34152;SDS011;20426;48.372;10.888;2023-02-28T00:14:18;2.38;;;1.92;;
34152;SDS011;20426;48.372;10.888;2023-02-28T00:14:49;4.85;;;2.08;;
34152;SDS011;20426;48.372;10.888;2023-02-28T00:15:20;1.88;;;1.70;;
34152;SDS011;20426;48.372;10.888;2023-02-28T00:15:59;1.90;;;1.63;;
34152;SDS011;20426;48.372;10.888;2023-02-28T00:16:32;2.85;;;1.90;;
34152;SDS011;20426;48.372;10.888;2023-02-28T00:17:02;3.30;;;1.63;;
34152;SDS011;20426;48.372;10.888;2023-02-28T00:17:33;2.38;;;1.85;;
34152;SDS011;20426;48.372;10.888;2023-02-28T00:18:04;3.38;;;2.25;;
34152;SDS011;20426;48.372;10.888;2023-02-28T00:18:34;2.17;;;1.95;;
34152;SDS011;20426;48.372;10.888;2023-02-28T00:19:05;3.50;;;2.20;;
34152;SDS011;20426;48.372;10.888;2023-02-28T00:19:36;3.95;;;2.38;;
34152;SDS011;20426;48.372;10.888;2023-02-28T00:20:07;3.45;;;1.90;;
34152;SDS011;20426;48.372;10.888;2023-02-28T00:20:40;2.88;;;1.90;;
34152;SDS011;20426;48.372;10.888;2023-02-28T00:21:10;4.22;;;2.38;;
34152;SDS011;20426;48.372;10.888;2023-02-28T00:21:41;2.45;;;1.65;;
34152;SDS011;20426;48.372;10.888;2023-02-28T00:22:12;2.65;;;1.75;;
34152;SDS011;20426;48.372;10.888;2023-02-28T00:22:49;3.50;;;1.88;;
34152;SDS011;20426;48.372;10.888;2023-02-28T00:23:21;2.35;;;1.92;;
34152;SDS011;20426;48.372;10.888;2023-02-28T00:23:51;3.33;;;1.85;;
34152;SDS011;20426;48.372;10.888;2023-02-28T00:24:22;3.08;;;2.00;;
34152;SDS011;20426;48.372;10.888;2023-02-28T00:24:53;3.72;;;2.08;;
34152;SDS011;20426;48.372;10.888;2023-02-28T00:25:24;5.20;;;1.90;;
34152;SDS011;20426;48.372;10.888;2023-02-28T00:25:55;3.58;;;2.20;;
34152;SDS011;20426;48.372;10.888;2023-02-28T00:26:26;3.85;;;2.00;;
34152;SDS011;20426;48.372;10.888;2023-02-28T00:26:57;3.42;;;2.15;;
34152;SDS011;20426;48.372;10.888;2023-02-28T00:27:28;6.07;;;2.20;;
34152;SDS011;20426;48.372;10.888;2023-02-28T00:27:58;6.15;;;2.10;;
34152;SDS011;20426;48.372;10.888;2023-02-28T00:28:29;2.88;;;1.70;;
34152;SDS011;20426;48.372;10.888;2023-02-28T00:29:00;3.92;;;2.33;;
34152;SDS011;20426;48.372;10.888;2023-02-28T00:29:30;2.78;;;1.77;;
34152;SDS011;20426;48.372;10.888;2023-02-28T00:30:01;2.15;;;1.83;;
34152;SDS011;20426;48.372;10.888;2023-02-28T00:30:32;3.65;;;1.95;;
34152;SDS011;20426;48.372;10.888;2023-02-28T00:31:03;5.30;;;2.13;;
34152;SDS011;20426;48.372;10.888;2023-02-28T00:31:35;3.90;;;2.33;;
34152;SDS011;20426;48.372;10.888;2023-02-28T00:32:06;4.32;;;2.10;;
34152;SDS011;20426;48.372;10.888;2023-02-28T00:32:36;3.63;;;2.03;;
34152;SDS011;20426;48.372;10.888;2023-02-28T00:33:08;6.88;;;2.35;;
34152;SDS011;20426;48.372;10.888;2023-02-28T00:34:12;3.67;;;1.88;;
34152;SDS011;20426;48.372;10.888;2023-02-28T00:34:42;2.25;;;1.77;;
34152;SDS011;20426;48.372;10.888;2023-02-28T00:35:13;4.15;;;1.73;;
34152;SDS011;20426;48.372;10.888;2023-02-28T00:35:44;2.38;;;2.03;;
34152;SDS011;20426;48.372;10.888;2023-02-28T00:36:18;2.42;;;1.75;;
34152;SDS011;20426;48.372;10.888;2023-02-28T00:36:49;2.65;;;2.05;;
34152;SDS011;20426;48.372;10.888;2023-02-28T00:37:20;2.85;;;1.75;;
34152;SDS011;20426;48.372;10.888;2023-02-28T00:37:50;3.40;;;2.05;;
34152;SDS011;20426;48.372;10.888;2023-02-28T00:38:21;2.72;;;1.90;;
34152;SDS011;20426;48.372;10.888;2023-02-28T00:38:52;3.63;;;2.22;;
34152;SDS011;20426;48.372;10.888;2023-02-28T00:39:22;3.78;;;1.80;;
34152;SDS011;20426;48.372;10.888;2023-02-28T00:39:53;4.18;;;2.20;;
34152;SDS011;20426;48.372;10.888;2023-02-28T00:40:24;3.92;;;2.13;;
34152;SDS011;20426;48.372;10.888;2023-02-28T00:40:54;5.10;;;2.20;;
34152;SDS011;20426;48.372;10.888;2023-02-28T00:41:25;2.58;;;1.92;;
34152;SDS011;20426;48.372;10.888;2023-02-28T00:41:56;6.30;;;2.35;;
34152;SDS011;20426;48.372;10.888;2023-02-28T00:42:26;2.97;;;2.10;;
34152;SDS011;20426;48.372;10.888;2023-02-28T00:42:57;4.03;;;2.17;;
34152;SDS011;20426;48.372;10.888;2023-02-28T00:43:28;3.47;;;2.33;;
34152;SDS011;20426;48.372;10.888;2023-02-28T00:43:59;2.60;;;1.80;;
34152;SDS011;20426;48.372;10.888;2023-02-28T00:44:30;3.10;;;1.90;;
34152;SDS011;20426;48.372;10.888;2023-02-28T00:45:01;2.55;;;1.77;;
34152;SDS011;20426;48.372;10.888;2023-02-28T00:45:34;4.88;;;2.05;;
34152;SDS011;20426;48.372;10.888;2023-02-28T00:46:04;2.72;;;2.05;;
34152;SDS011;20426;48.372;10.888;2023-02-28T00:46:36;2.38;;;1.95;;
34152;SDS011;20426;48.372;10.888;2023-02-28T00:47:07;3.65;;;2.20;;
34152;SDS011;20426;48.372;10.888;2023-02-28T00:47:37;3.15;;;2.30;;
34152;SDS011;20426;48.372;10.888;2023-02-28T00:48:08;3.30;;;2.13;;
34152;SDS011;20426;48.372;10.888;2023-02-28T00:48:39;4.05;;;2.28;;
34152;SDS011;20426;48.372;10.888;2023-02-28T00:49:09;2.10;;;1.70;;
34152;SDS011;20426;48.372;10.888;2023-02-28T00:49:40;2.67;;;1.83;;
34152;SDS011;20426;48.372;10.888;2023-02-28T00:50:11;2.63;;;1.77;;
34152;SDS011;20426;48.372;10.888;2023-02-28T00:50:42;3.10;;;2.38;;
34152;SDS011;20426;48.372;10.888;2023-02-28T00:51:12;3.17;;;1.88;;
34152;SDS011;20426;48.372;10.888;2023-02-28T00:51:43;3.05;;;1.85;;
34152;SDS011;20426;48.372;10.888;2023-02-28T00:52:14;3.03;;;1.90;;
34152;SDS011;20426;48.372;10.888;2023-02-28T00:52:44;3.60;;;2.60;;
34152;SDS011;20426;48.372;10.888;2023-02-28T00:53:15;5.10;;;2.72;;
34152;SDS011;20426;48.372;10.888;2023-02-28T00:53:46;3.38;;;2.35;;
34152;SDS011;20426;48.372;10.888;2023-02-28T00:54:17;6.47;;;2.45;;
34152;SDS011;20426;48.372;10.888;2023-02-28T00:54:48;2.60;;;2.10;;
34152;SDS011;20426;48.372;10.888;2023-02-28T00:55:19;2.78;;;2.00;;
34152;SDS011;20426;48.372;10.888;2023-02-28T00:55:50;3.63;;;2.22;;
34152;SDS011;20426;48.372;10.888;2023-02-28T00:56:21;3.40;;;2.10;;
34152;SDS011;20426;48.372;10.888;2023-02-28T00:56:51;4.60;;;2.08;;
34152;SDS011;20426;48.372;10.888;2023-02-28T00:57:22;2.50;;;2.10;;
34152;SDS011;20426;48.372;10.888;2023-02-28T00:57:53;3.97;;;2.20;;
34152;SDS011;20426;48.372;10.888;2023-02-28T00:58:23;3.40;;;2.10;;
34152;SDS011;20426;48.372;10.888;2023-02-28T00:58:54;2.53;;;1.85;;
34152;SDS011;20426;48.372;10.888;2023-02-28T00:59:25;2.60;;;2.05;;
34152;SDS011;20426;48.372;10.888;2023-02-28T00:59:56;3.92;;;2.35;;
34152;SDS011;20426;48.372;10.888;2023-02-28T01:00:26;2.75;;;2.00;;
34152;SDS011;20426;48.372;10.888;2023-02-28T01:00:57;2.40;;;2.00;;
34152;SDS011;20426;48.372;10.888;2023-02-28T01:01:28;5.30;;;2.22;;
34152;SDS011;20426;48.372;10.888;2023-02-28T01:01:58;3.70;;;2.33;;
34152;SDS011;20426;48.372;10.888;2023-02-28T01:02:29;4.63;;;1.88;;
34152;SDS011;20426;48.372;10.888;2023-02-28T01:03:00;4.55;;;1.83;;
34152;SDS011;20426;48.372;10.888;2023-02-28T01:03:30;2.83;;;2.05;;
34152;SDS011;20426;48.372;10.888;2023-02-28T01:04:01;2.50;;;2.00;;
34152;SDS011;20426;48.372;10.888;2023-02-28T01:04:33;3.25;;;1.90;;
34152;SDS011;20426;48.372;10.888;2023-02-28T01:05:04;2.70;;;1.95;;
34152;SDS011;20426;48.372;10.888;2023-02-28T01:05:35;2.15;;;1.90;;
34152;SDS011;20426;48.372;10.888;2023-02-28T01:06:06;3.75;;;2.22;;
34152;SDS011;20426;48.372;10.888;2023-02-28T01:06:36;3.30;;;2.00;;
34152;SDS011;20426;48.372;10.888;2023-02-28T01:07:08;3.92;;;2.22;;
34152;SDS011;20426;48.372;10.888;2023-02-28T01:07:38;4.80;;;2.20;;
34152;SDS011;20426;48.372;10.888;2023-02-28T01:08:09;4.22;;;2.22;;
34152;SDS011;20426;48.372;10.888;2023-02-28T01:08:40;2.75;;;2.28;;
34152;SDS011;20426;48.372;10.888;2023-02-28T01:09:11;2.88;;;1.85;;
34152;SDS011;20426;48.372;10.888;2023-02-28T01:09:42;3.22;;;2.00;;
34152;SDS011;20426;48.372;10.888;2023-02-28T01:10:12;6.50;;;2.13;;
34152;SDS011;20426;48.372;10.888;2023-02-28T01:10:43;3.88;;;1.83;;
34152;SDS011;20426;48.372;10.888;2023-02-28T01:11:15;3.05;;;1.92;;
34152;SDS011;20426;48.372;10.888;2023-02-28T01:11:47;3.25;;;1.98;;
34152;SDS011;20426;48.372;10.888;2023-02-28T01:12:17;2.78;;;1.85;;
34152;SDS011;20426;48.372;10.888;2023-02-28T01:12:48;4.55;;;2.00;;
34152;SDS011;20426;48.372;10.888;2023-02-28T01:13:19;2.38;;;1.88;;
34152;SDS011;20426;48.372;10.888;2023-02-28T01:13:50;2.33;;;2.03;;
34152;SDS011;20426;48.372;10.888;2023-02-28T01:14:21;2.70;;;1.83;;
34152;SDS011;20426;48.372;10.888;2023-02-28T01:14:52;4.10;;;2.13;;
34152;SDS011;20426;48.372;10.888;2023-02-28T01:15:22;2.30;;;1.90;;
34152;SDS011;20426;48.372;10.888;2023-02-28T01:15:55;4.93;;;2.40;;
34152;SDS011;20426;48.372;10.888;2023-02-28T01:16:27;2.97;;;2.17;;
34152;SDS011;20426;48.372;10.888;2023-02-28T01:16:58;2.80;;;2.25;;
34152;SDS011;20426;48.372;10.888;2023-02-28T01:17:28;2.75;;;1.95;;
34152;SDS011;20426;48.372;10.888;2023-02-28T01:17:59;3.00;;;2.20;;
34152;SDS011;20426;48.372;10.888;2023-02-28T01:18:30;7.93;;;2.50;;
34152;SDS011;20426;48.372;10.888;2023-02-28T01:19:01;3.45;;;2.22;;
34152;SDS011;20426;48.372;10.888;2023-02-28T01:19:32;3.17;;;2.17;;
34152;SDS011;20426;48.372;10.888;2023-02-28T01:20:03;2.78;;;2.00;;
34152;SDS011;20426;48.372;10.888;2023-02-28T01:20:36;3.10;;;2.45;;
34152;SDS011;20426;48.372;10.888;2023-02-28T01:21:08;3.47;;;1.70;;
34152;SDS011;20426;48.372;10.888;2023-02-28T01:21:41;3.50;;;2.10;;
34152;SDS011;20426;48.372;10.888;2023-02-28T01:22:11;3.08;;;2.10;;
34152;SDS011;20426;48.372;10.888;2023-02-28T01:22:42;3.47;;;2.00;;
34152;SDS011;20426;48.372;10.888;2023-02-28T01:23:13;2.78;;;2.15;;
34152;SDS011;20426;48.372;10.888;2023-02-28T01:23:44;2.60;;;2.00;;
34152;SDS011;20426;48.372;10.888;2023-02-28T01:24:15;3.50;;;2.15;;
34152;SDS011;20426;48.372;10.888;2023-02-28T01:24:46;2.95;;;2.00;;
34152;SDS011;20426;48.372;10.888;2023-02-28T01:25:17;2.40;;;2.20;;
34152;SDS011;20426;48.372;10.888;2023-02-28T01:25:51;2.15;;;1.70;;
34152;SDS011;20426;48.372;10.888;2023-02-28T01:26:22;4.22;;;1.90;;
34152;SDS011;20426;48.372;10.888;2023-02-28T01:26:53;1.85;;;1.50;;
34152;SDS011;20426;48.372;10.888;2023-02-28T01:27:24;3.40;;;1.92;;
34152;SDS011;20426;48.372;10.888;2023-02-28T01:27:56;5.95;;;2.17;;
34152;SDS011;20426;48.372;10.888;2023-02-28T01:28:27;2.85;;;1.80;;
34152;SDS011;20426;48.372;10.888;2023-02-28T01:28:59;2.92;;;2.00;;
34152;SDS011;20426;48.372;10.888;2023-02-28T01:29:30;3.40;;;2.05;;
34152;SDS011;20426;48.372;10.888;2023-02-28T01:30:01;7.07;;;2.25;;
34152;SDS011;20426;48.372;10.888;2023-02-28T01:30:32;2.95;;;2.00;;
34152;SDS011;20426;48.372;10.888;2023-02-28T01:31:03;3.67;;;2.17;;
34152;SDS011;20426;48.372;10.888;2023-02-28T01:31:34;3.42;;;2.30;;
34152;SDS011;20426;48.372;10.888;2023-02-28T01:32:05;2.60;;;2.10;;
34152;SDS011;20426;48.372;10.888;2023-02-28T01:32:35;6.43;;;2.45;;
34152;SDS011;20426;48.372;10.888;2023-02-28T01:33:06;4.03;;;2.20;;
34152;SDS011;20426;48.372;10.888;2023-02-28T01:33:37;4.20;;;1.95;;
34152;SDS011;20426;48.372;10.888;2023-02-28T01:34:08;3.70;;;2.22;;
34152;SDS011;20426;48.372;10.888;2023-02-28T01:34:39;3.25;;;1.98;;
34152;SDS011;20426;48.372;10.888;2023-02-28T01:35:10;2.58;;;2.20;;
34152;SDS011;20426;48.372;10.888;2023-02-28T01:35:40;3.45;;;2.28;;
34152;SDS011;20426;48.372;10.888;2023-02-28T01:36:12;3.15;;;2.28;;
34152;SDS011;20426;48.372;10.888;2023-02-28T01:36:45;4.25;;;2.00;;
34152;SDS011;20426;48.372;10.888;2023-02-28T01:37:16;3.35;;;2.55;;
34152;SDS011;20426;48.372;10.888;2023-02-28T01:37:46;4.05;;;2.13;;
34152;SDS011;20426;48.372;10.888;2023-02-28T01:38:17;3.03;;;2.13;;
34152;SDS011;20426;48.372;10.888;2023-02-28T01:38:48;4.43;;;1.90;;
34152;SDS011;20426;48.372;10.888;2023-02-28T01:39:19;2.63;;;1.95;;
34152;SDS011;20426;48.372;10.888;2023-02-28T01:39:49;2.78;;;1.92;;
34152;SDS011;20426;48.372;10.888;2023-02-28T01:40:20;3.58;;;1.90;;
34152;SDS011;20426;48.372;10.888;2023-02-28T01:40:52;2.20;;;1.80;;
34152;SDS011;20426;48.372;10.888;2023-02-28T01:41:24;5.22;;;2.00;;
34152;SDS011;20426;48.372;10.888;2023-02-28T01:42:00;2.85;;;2.35;;
34152;SDS011;20426;48.372;10.888;2023-02-28T01:42:30;3.13;;;2.40;;
34152;SDS011;20426;48.372;10.888;2023-02-28T01:43:01;2.95;;;2.08;;
34152;SDS011;20426;48.372;10.888;2023-02-28T01:43:50;3.33;;;2.08;;
34152;SDS011;20426;48.372;10.888;2023-02-28T01:45:27;2.65;;;1.50;;
34152;SDS011;20426;48.372;10.888;2023-02-28T01:45:59;2.13;;;1.80;;
34152;SDS011;20426;48.372;10.888;2023-02-28T01:46:31;3.95;;;2.17;;
34152;SDS011;20426;48.372;10.888;2023-02-28T01:47:03;3.75;;;1.98;;
34152;SDS011;20426;48.372;10.888;2023-02-28T01:47:35;3.88;;;2.25;;
34152;SDS011;20426;48.372;10.888;2023-02-28T01:48:10;3.47;;;1.88;;
34152;SDS011;20426;48.372;10.888;2023-02-28T01:48:44;6.07;;;2.22;;
34152;SDS011;20426;48.372;10.888;2023-02-28T01:49:19;3.17;;;2.20;;
34152;SDS011;20426;48.372;10.888;2023-02-28T01:49:50;4.05;;;2.20;;
34152;SDS011;20426;48.372;10.888;2023-02-28T01:50:23;2.33;;;1.75;;
34152;SDS011;20426;48.372;10.888;2023-02-28T01:50:59;2.88;;;1.95;;
34152;SDS011;20426;48.372;10.888;2023-02-28T01:52:20;3.35;;;1.98;;
34152;SDS011;20426;48.372;10.888;2023-02-28T01:52:53;3.03;;;2.00;;
34152;SDS011;20426;48.372;10.888;2023-02-28T01:53:29;2.88;;;2.03;;
34152;SDS011;20426;48.372;10.888;2023-02-28T01:54:07;3.97;;;2.33;;
34152;SDS011;20426;48.372;10.888;2023-02-28T01:54:45;3.25;;;2.33;;
34152;SDS011;20426;48.372;10.888;2023-02-28T01:55:20;4.53;;;1.80;;
34152;SDS011;20426;48.372;10.888;2023-02-28T01:55:53;3.92;;;1.75;;
34152;SDS011;20426;48.372;10.888;2023-02-28T01:56:27;4.03;;;2.00;;
34152;SDS011;20426;48.372;10.888;2023-02-28T01:57:10;2.45;;;1.70;;
34152;SDS011;20426;48.372;10.888;2023-02-28T01:57:48;6.00;;;2.22;;
34152;SDS011;20426;48.372;10.888;2023-02-28T01:58:22;5.47;;;1.90;;
34152;SDS011;20426;48.372;10.888;2023-02-28T01:58:53;2.90;;;2.17;;
34152;SDS011;20426;48.372;10.888;2023-02-28T01:59:29;5.30;;;1.95;;
34152;SDS011;20426;48.372;10.888;2023-02-28T02:00:06;4.25;;;2.33;;
34152;SDS011;20426;48.372;10.888;2023-02-28T02:00:39;2.53;;;1.98;;
34152;SDS011;20426;48.372;10.888;2023-02-28T02:01:12;4.55;;;2.33;;
34152;SDS011;20426;48.372;10.888;2023-02-28T02:01:51;4.72;;;2.08;;
34152;SDS011;20426;48.372;10.888;2023-02-28T02:02:24;3.13;;;2.08;;
34152;SDS011;20426;48.372;10.888;2023-02-28T02:02:57;7.63;;;2.13;;
34152;SDS011;20426;48.372;10.888;2023-02-28T02:03:31;3.47;;;2.20;;
34152;SDS011;20426;48.372;10.888;2023-02-28T02:04:02;4.43;;;2.00;;
34152;SDS011;20426;48.372;10.888;2023-02-28T02:04:37;4.30;;;2.10;;
34152;SDS011;20426;48.372;10.888;2023-02-28T02:05:14;3.70;;;2.22;;
34152;SDS011;20426;48.372;10.888;2023-02-28T02:05:50;2.63;;;2.05;;
34152;SDS011;20426;48.372;10.888;2023-02-28T02:06:38;2.60;;;1.92;;
34152;SDS011;20426;48.372;10.888;2023-02-28T02:07:13;3.38;;;2.08;;
34152;SDS011;20426;48.372;10.888;2023-02-28T02:07:44;2.65;;;2.22;;
34152;SDS011;20426;48.372;10.888;2023-02-28T02:08:22;3.83;;;2.00;;
34152;SDS011;20426;48.372;10.888;2023-02-28T02:08:55;3.38;;;2.13;;
34152;SDS011;20426;48.372;10.888;2023-02-28T02:09:26;3.63;;;2.28;;
34152;SDS011;20426;48.372;10.888;2023-02-28T02:10:00;4.50;;;2.10;;
34152;SDS011;20426;48.372;10.888;2023-02-28T02:10:42;3.33;;;2.05;;
34152;SDS011;20426;48.372;10.888;2023-02-28T02:11:18;3.35;;;1.80;;
34152;SDS011;20426;48.372;10.888;2023-02-28T02:11:51;4.90;;;2.17;;
34152;SDS011;20426;48.372;10.888;2023-02-28T02:12:42;3.17;;;2.10;;
34152;SDS011;20426;48.372;10.888;2023-02-28T02:14:29;4.63;;;2.20;;
34152;SDS011;20426;48.372;10.888;2023-02-28T02:15:12;2.40;;;1.73;;
34152;SDS011;20426;48.372;10.888;2023-02-28T02:17:41;3.22;;;1.92;;
34152;SDS011;20426;48.372;10.888;2023-02-28T02:18:25;2.88;;;1.90;;
34152;SDS011;20426;48.372;10.888;2023-02-28T02:29:47;2.83;;;2.13;;
34152;SDS011;20426;48.372;10.888;2023-02-28T02:33:01;3.88;;;2.00;;
34152;SDS011;20426;48.372;10.888;2023-02-28T02:34:16;4.32;;;2.20;;
34152;SDS011;20426;48.372;10.888;2023-02-28T02:35:00;2.97;;;1.90;;
34152;SDS011;20426;48.372;10.888;2023-02-28T02:35:56;4.22;;;2.20;;
34152;SDS011;20426;48.372;10.888;2023-02-28T02:36:51;2.47;;;1.98;;
34152;SDS011;20426;48.372;10.888;2023-02-28T02:37:29;4.15;;;2.22;;
34152;SDS011;20426;48.372;10.888;2023-02-28T02:38:53;6.68;;;2.60;;
34152;SDS011;20426;48.372;10.888;2023-02-28T02:40:40;4.88;;;2.28;;
34152;SDS011;20426;48.372;10.888;2023-02-28T02:41:56;4.13;;;2.40;;
34152;SDS011;20426;48.372;10.888;2023-02-28T02:44:28;2.38;;;1.77;;
34152;SDS011;20426;48.372;10.888;2023-02-28T02:45:07;3.40;;;1.98;;
34152;SDS011;20426;48.372;10.888;2023-02-28T02:45:49;3.30;;;2.20;;
34152;SDS011;20426;48.372;10.888;2023-02-28T02:46:35;4.07;;;2.15;;
34152;SDS011;20426;48.372;10.888;2023-02-28T02:47:14;3.53;;;1.80;;
34152;SDS011;20426;48.372;10.888;2023-02-28T02:47:47;5.47;;;2.03;;
34152;SDS011;20426;48.372;10.888;2023-02-28T02:48:19;4.25;;;2.25;;
34152;SDS011;20426;48.372;10.888;2023-02-28T02:48:55;5.60;;;2.70;;
34152;SDS011;20426;48.372;10.888;2023-02-28T02:49:30;5.68;;;3.15;;
34152;SDS011;20426;48.372;10.888;2023-02-28T02:50:04;4.35;;;2.38;;
34152;SDS011;20426;48.372;10.888;2023-02-28T02:50:51;7.13;;;2.97;;
34152;SDS011;20426;48.372;10.888;2023-02-28T02:51:25;3.65;;;2.50;;
34152;SDS011;20426;48.372;10.888;2023-02-28T02:52:01;3.83;;;2.47;;
34152;SDS011;20426;48.372;10.888;2023-02-28T02:52:37;3.90;;;2.35;;
34152;SDS011;20426;48.372;10.888;2023-02-28T02:53:10;3.17;;;2.20;;
34152;SDS011;20426;48.372;10.888;2023-02-28T02:53:49;4.50;;;2.50;;
34152;SDS011;20426;48.372;10.888;2023-02-28T02:54:41;3.85;;;2.30;;
34152;SDS011;20426;48.372;10.888;2023-02-28T02:55:15;4.28;;;2.38;;
34152;SDS011;20426;48.372;10.888;2023-02-28T02:55:48;4.63;;;2.47;;
34152;SDS011;20426;48.372;10.888;2023-02-28T02:56:25;4.05;;;2.20;;
34152;SDS011;20426;48.372;10.888;2023-02-28T02:56:59;6.75;;;2.38;;
34152;SDS011;20426;48.372;10.888;2023-02-28T02:58:32;3.95;;;2.17;;
34152;SDS011;20426;48.372;10.888;2023-02-28T02:59:13;3.85;;;2.25;;
34152;SDS011;20426;48.372;10.888;2023-02-28T02:59:51;3.33;;;2.00;;
34152;SDS011;20426;48.372;10.888;2023-02-28T03:00:26;3.28;;;2.55;;
34152;SDS011;20426;48.372;10.888;2023-02-28T03:01:03;2.53;;;2.22;;
34152;SDS011;20426;48.372;10.888;2023-02-28T03:01:34;3.42;;;2.58;;
34152;SDS011;20426;48.372;10.888;2023-02-28T03:02:08;3.58;;;2.45;;
34152;SDS011;20426;48.372;10.888;2023-02-28T03:02:42;4.45;;;2.35;;
34152;SDS011;20426;48.372;10.888;2023-02-28T03:03:14;4.25;;;2.47;;
34152;SDS011;20426;48.372;10.888;2023-02-28T03:03:47;4.38;;;2.75;;
34152;SDS011;20426;48.372;10.888;2023-02-28T03:04:20;4.00;;;2.72;;
34152;SDS011;20426;48.372;10.888;2023-02-28T03:04:53;3.70;;;2.40;;
34152;SDS011;20426;48.372;10.888;2023-02-28T03:05:39;5.43;;;3.10;;
34152;SDS011;20426;48.372;10.888;2023-02-28T03:06:15;5.85;;;2.25;;
34152;SDS011;20426;48.372;10.888;2023-02-28T03:06:46;4.13;;;2.47;;
34152;SDS011;20426;48.372;10.888;2023-02-28T03:07:17;4.43;;;2.38;;
34152;SDS011;20426;48.372;10.888;2023-02-28T03:07:48;4.22;;;2.50;;
34152;SDS011;20426;48.372;10.888;2023-02-28T03:08:18;4.10;;;2.80;;
34152;SDS011;20426;48.372;10.888;2023-02-28T03:08:49;3.83;;;2.60;;
34152;SDS011;20426;48.372;10.888;2023-02-28T03:09:24;5.32;;;2.42;;
34152;SDS011;20426;48.372;10.888;2023-02-28T03:09:56;3.35;;;2.70;;
34152;SDS011;20426;48.372;10.888;2023-02-28T03:11:09;3.50;;;2.13;;
34152;SDS011;20426;48.372;10.888;2023-02-28T03:11:44;4.32;;;2.63;;
34152;SDS011;20426;48.372;10.888;2023-02-28T03:12:15;2.88;;;2.10;;
34152;SDS011;20426;48.372;10.888;2023-02-28T03:12:49;6.82;;;3.10;;
34152;SDS011;20426;48.372;10.888;2023-02-28T03:13:35;6.20;;;2.92;;
34152;SDS011;20426;48.372;10.888;2023-02-28T03:14:43;4.70;;;2.65;;
34152;SDS011;20426;48.372;10.888;2023-02-28T03:18:10;3.78;;;2.72;;
34152;SDS011;20426;48.372;10.888;2023-02-28T03:18:54;4.38;;;2.63;;
34152;SDS011;20426;48.372;10.888;2023-02-28T03:22:23;4.38;;;2.50;;
34152;SDS011;20426;48.372;10.888;2023-02-28T03:23:18;5.15;;;3.08;;
34152;SDS011;20426;48.372;10.888;2023-02-28T03:24:10;3.70;;;2.58;;
34152;SDS011;20426;48.372;10.888;2023-02-28T03:25:07;4.18;;;2.72;;
34152;SDS011;20426;48.372;10.888;2023-02-28T03:26:25;4.25;;;2.67;;
34152;SDS011;20426;48.372;10.888;2023-02-28T03:27:17;4.45;;;2.90;;
34152;SDS011;20426;48.372;10.888;2023-02-28T03:28:05;2.80;;;2.45;;
34152;SDS011;20426;48.372;10.888;2023-02-28T03:28:51;5.20;;;2.47;;
34152;SDS011;20426;48.372;10.888;2023-02-28T03:29:37;4.10;;;2.10;;
34152;SDS011;20426;48.372;10.888;2023-02-28T03:31:44;4.78;;;2.65;;
34152;SDS011;20426;48.372;10.888;2023-02-28T03:32:19;7.35;;;2.72;;
34152;SDS011;20426;48.372;10.888;2023-02-28T03:33:01;3.38;;;2.70;;
34152;SDS011;20426;48.372;10.888;2023-02-28T03:33:58;4.03;;;2.20;;
34152;SDS011;20426;48.372;10.888;2023-02-28T03:34:37;4.20;;;3.03;;
34152;SDS011;20426;48.372;10.888;2023-02-28T03:35:14;3.97;;;2.90;;
34152;SDS011;20426;48.372;10.888;2023-02-28T03:36:10;4.90;;;2.60;;
34152;SDS011;20426;48.372;10.888;2023-02-28T03:36:50;5.22;;;2.75;;
34152;SDS011;20426;48.372;10.888;2023-02-28T03:37:23;6.07;;;3.03;;
34152;SDS011;20426;48.372;10.888;2023-02-28T03:38:00;4.05;;;2.58;;
34152;SDS011;20426;48.372;10.888;2023-02-28T03:39:22;5.38;;;2.65;;
34152;SDS011;20426;48.372;10.888;2023-02-28T03:40:21;6.45;;;2.60;;
34152;SDS011;20426;48.372;10.888;2023-02-28T03:41:01;6.95;;;2.67;;
34152;SDS011;20426;48.372;10.888;2023-02-28T03:41:47;5.80;;;3.30;;
34152;SDS011;20426;48.372;10.888;2023-02-28T03:42:24;5.38;;;2.38;;
34152;SDS011;20426;48.372;10.888;2023-02-28T03:43:00;3.47;;;2.50;;
34152;SDS011;20426;48.372;10.888;2023-02-28T03:43:35;6.45;;;2.95;;
34152;SDS011;20426;48.372;10.888;2023-02-28T03:44:13;5.30;;;2.88;;
34152;SDS011;20426;48.372;10.888;2023-02-28T03:44:54;5.53;;;2.80;;
34152;SDS011;20426;48.372;10.888;2023-02-28T03:45:35;6.68;;;2.92;;
34152;SDS011;20426;48.372;10.888;2023-02-28T03:46:09;7.25;;;2.83;;
34152;SDS011;20426;48.372;10.888;2023-02-28T03:46:45;4.25;;;2.90;;
34152;SDS011;20426;48.372;10.888;2023-02-28T03:47:22;4.57;;;2.65;;
34152;SDS011;20426;48.372;10.888;2023-02-28T03:48:02;3.60;;;2.85;;
34152;SDS011;20426;48.372;10.888;2023-02-28T03:48:57;6.10;;;3.30;;
34152;SDS011;20426;48.372;10.888;2023-02-28T03:49:35;5.30;;;2.92;;
34152;SDS011;20426;48.372;10.888;2023-02-28T03:50:18;4.93;;;2.38;;
34152;SDS011;20426;48.372;10.888;2023-02-28T03:50:55;5.03;;;3.03;;
34152;SDS011;20426;48.372;10.888;2023-02-28T03:51:28;3.70;;;2.40;;
34152;SDS011;20426;48.372;10.888;2023-02-28T03:52:01;3.80;;;2.70;;
34152;SDS011;20426;48.372;10.888;2023-02-28T03:52:36;3.47;;;2.40;;
34152;SDS011;20426;48.372;10.888;2023-02-28T03:53:19;4.15;;;3.10;;
34152;SDS011;20426;48.372;10.888;2023-02-28T03:54:06;5.50;;;3.33;;
34152;SDS011;20426;48.372;10.888;2023-02-28T03:54:48;7.50;;;3.28;;
34152;SDS011;20426;48.372;10.888;2023-02-28T03:55:22;4.65;;;2.97;;
34152;SDS011;20426;48.372;10.888;2023-02-28T03:55:58;4.63;;;2.60;;
34152;SDS011;20426;48.372;10.888;2023-02-28T03:57:53;5.80;;;3.05;;
34152;SDS011;20426;48.372;10.888;2023-02-28T03:58:42;5.13;;;3.00;;